SBOSBO BOH / EGHH
Speedbird OnlineSpeedbird Online BOH / EGHH

Bournemouth Airport
07:32 8.2°C

Location Bournemouth, United Kingdom
Latitude: 50.779998779296875
Longitude: -1.8424999713897705
Web Airport Website | Wikipedia
Altitude 12 Meter / 38 Feet
Distance 159 KM / 99 Miles
from London.
Time Zone UTC +1 hours (Europe/London)
Codes IATA: BOH
ICAO: EGHH
Runways
RunwayLength (m)Surface
082271Asphalt
262271Asphalt
Radio
TypeDescriptionFrequency
APPAPP119.475
ATISATIS121.95
GNDGND121.7
TWRTWR125.6
Live ATC
METAR EGHH 060620Z 25005KT CAVOK 08/07 Q1028
TAF TAF AMD EGHH 060523Z 0606/0615 23009KT 9999 SCT030
Weather As Of 06 Oct 2022 07:32
Description Clear sky
Wind 9 km/h from West (250°)
Cloud Cover 0%
Precipitation Rain: none, Snow: none
Sunrise 07:15
Sunset 18:35
Rotations During the last 90 days there were
1 flights from LIN
1 flights to LHR


© 2017-2022 Speedbird Online